Blue Hills, Connecticut
Current Conditions -  °F | °C
As of 1:53 AM on Thursday 18 Dec 2014 (Local Time) from KHFD Reporting Station
Overcast Overcast  
Wind Chill: 32°   Ceiling: 7000
Heat Index: 38°   Visibility: 10mi
Dew Point: 31°   Wind: 8mph
Humidity: 76%   Direction: 230°SW
Pressure: 29.82"   Gusts: NA
Location:  41.7934°N, 72.6965°W
Report Text: KHFD 180653Z AUTO 23007KT 10SM FEW035 OVC070 03/M01 A2982 RMK AO2 SLP097 T00331006
Loading
Personal Weather Stations






























Interactive Weather Map New forecast layout! Learn more

10-Day Weather Forecast

Advertisements
Track Severe Weather on mobile